Dwiputra — C6MJ6 — position and weather

sailwx.info

Track history (hours):
 
Tides and Currents Weather Stations Pressure Air Temp Water Temp Dewpoint Dewpoint Depression Visibility Wind Speed Wind Dir Waves Ship Positions

Dwiputra

Last reported at 2018-May-12 18:45 UTC. Time now 2018-Jun-20 11:28 UTC.
Position N 22°09' E 121°00'.
Warning: this ship's position is 38 days out of date.

Length 272 m; beam 47.2 m.

Type: Tanker. MMSI: 308883000.

Date/timePositionNaut miles runAvg speedWind from/ knotsBaromVisibWave heightAir tempDewpointWater temp
2018-May-12 18:45N 22°09' E 121°00'310.5
2018-May-12 18:27N 22°12' E 121°00'1 1.9
2018-May-12 17:58N 22°12' E 121°01'4 1.3
2018-May-12 14:56N 22°08' E 121°01'611.6
2018-May-12 14:26N 22°14' E 121°01'511.0
2018-May-12 13:57N 22°20' E 121°02'7 8.6
2018-May-12 13:07N 22°13' E 120°60'210.9
2018-May-12 12:55N 22°11' E 120°60'1 0.4
2018-May-12 10:06N 22°09' E 120°60'112.9
2018-May-12 10:00N 22°11' E 120°60'712.1
2018-May-12 09:23N 22°18' E 120°60'1211.4
2018-May-12 08:20N 22°29' E 121°04'8 4.5
2018-May-12 06:37N 22°23' E 121°01'314.0
2018-May-12 06:23N 22°19' E 120°60'815.7
2018-May-12 05:51N 22°11' E 120°59'2 0.3
2018-May-11 23:42N 22°09' E 120°60'3 8.6
2018-May-11 23:24N 22°12' E 120°60'4 9.0
2018-May-11 22:57N 22°16' E 120°60'5 9.4
2018-May-11 22:28N 22°20' E 120°60'8 8.9
2018-May-11 21:36N 22°27' E 121°03'1 4.1
2018-May-11 21:27N 22°27' E 121°03'5 7.9
2018-May-11 20:48N 22°23' E 121°01'5 7.7
2018-May-11 20:11N 22°18' E 120°60'2 7.8
2018-May-11 19:55N 22°16' E 120°60'3 7.9
2018-May-11 19:30N 22°13' E 120°60'37 4.3
2018-May-11 10:50N 22°09' E 120°20'4 8.7
2018-May-11 10:25N 22°12' E 120°18'4 8.7
2018-May-11 10:00N 22°15' E 120°16'4 8.8
2018-May-11 09:30N 22°19' E 120°13'4 8.5
2018-May-11 09:01N 22°21' E 120°10'2 4.3
2018-May-11 08:30N 22°23' E 120°08'0 0.3
2018-May-11 08:00N 22°23' E 120°08'0 0.5
2018-May-11 07:18N 22°23' E 120°07'0 0.8
2018-May-11 07:00N 22°23' E 120°07'0 0.5
2018-May-11 06:30N 22°23' E 120°07'0 0.6
2018-May-11 05:54N 22°23' E 120°06'0 0.6
2018-May-11 05:30N 22°24' E 120°06'0 0.7
2018-May-11 05:00N 22°24' E 120°06'0 0.5
2018-May-11 04:30N 22°24' E 120°06'0 0.5
2018-May-11 04:00N 22°24' E 120°06'0 0.3
2018-May-11 03:30N 22°24' E 120°06'0 0.4
2018-May-11 03:00N 22°25' E 120°06'0 0.5
2018-May-11 02:30N 22°25' E 120°06'0 0.4
2018-May-11 02:00N 22°25' E 120°06'2 3.9
2018-May-11 01:30N 22°26' E 120°08'510.0
2018-May-11 01:00N 22°30' E 120°12'5 9.4
2018-May-11 00:30N 22°33' E 120°15'3 6.8
2018-May-11 00:00N 22°33' E 120°19'1 1.7
2018-May-10 23:30N 22°34' E 120°19'0 0.6
2018-May-10 22:56N 22°34' E 120°18'0 0.1
2018-May-10 22:29N 22°34' E 120°18'0 0.0
2018-May-10 21:57N 22°34' E 120°18'0 0.0
2018-May-10 21:29N 22°34' E 120°18'0 0.0
2018-May-10 20:59N 22°34' E 120°18'0 0.0
2018-May-10 20:26N 22°34' E 120°18'0 0.0
2018-May-10 19:59N 22°34' E 120°18'0 0.0
2018-May-10 19:26N 22°34' E 120°18'0 0.0
2018-May-10 18:56N 22°34' E 120°18'0 0.0
2018-May-10 18:29N 22°34' E 120°18'0 0.0
2018-May-10 17:59N 22°34' E 120°18'0 0.0
2018-May-10 17:29N 22°34' E 120°18'0 0.0
2018-May-10 16:59N 22°34' E 120°18'0 0.0
2018-May-10 16:29N 22°34' E 120°18'0 0.0
2018-May-10 15:59N 22°34' E 120°18'0 0.0
2018-May-10 15:29N 22°34' E 120°18'0 0.0
2018-May-10 14:59N 22°34' E 120°18'0 0.0
2018-May-10 14:26N 22°34' E 120°18'0 0.0
2018-May-10 13:56N 22°34' E 120°18'0 0.0
2018-May-10 13:29N 22°34' E 120°18'0 0.0
2018-May-10 12:59N 22°34' E 120°18'0 0.0
2018-May-10 12:23N 22°34' E 120°18'0 0.0
2018-May-10 11:56N 22°34' E 120°18'0 0.0
2018-May-10 11:29N 22°34' E 120°18'0 0.0
2018-May-10 10:59N 22°34' E 120°18'0 0.0
2018-May-10 10:29N 22°34' E 120°18'0 0.0
2018-May-10 09:56N 22°34' E 120°18'0 0.0
2018-May-10 09:29N 22°34' E 120°18'0 0.0
2018-May-10 08:50N 22°34' E 120°18'0 0.0
2018-May-10 08:26N 22°34' E 120°18'0 0.0
2018-May-10 07:56N 22°34' E 120°18'0 0.0
2018-May-10 07:26N 22°34' E 120°18'0 0.0
2018-May-10 06:56N 22°34' E 120°18'0 0.0
2018-May-10 06:26N 22°34' E 120°18'0 0.0
2018-May-10 05:59N 22°34' E 120°18'0 0.0
2018-May-10 05:29N 22°34' E 120°18'0 0.0
2018-May-10 04:56N 22°34' E 120°18'0 0.0
2018-May-10 04:20N 22°34' E 120°18'0 0.0
2018-May-10 03:56N 22°34' E 120°18'0 0.0
2018-May-10 03:26N 22°34' E 120°18'0 0.0
2018-May-10 02:56N 22°34' E 120°18'0 0.0
2018-May-10 02:20N 22°34' E 120°18'0 0.0
2018-May-10 01:56N 22°34' E 120°18'0 0.0
2018-May-10 01:20N 22°34' E 120°18'0 0.0
2018-May-10 00:56N 22°34' E 120°18'0 0.0
2018-May-10 00:27N 22°34' E 120°18'1 1.3
2018-May-10 00:00N 22°34' E 120°19'1 1.8
2018-May-09 23:30N 22°33' E 120°18'3 6.1
2018-May-09 23:00N 22°32' E 120°15'3 5.0
2018-May-09 22:30N 22°31' E 120°13'1 1.5
2018-May-09 22:00N 22°30' E 120°13'4 8.6
2018-May-09 21:29N 22°27' E 120°17'3 6.6
2018-May-09 21:00N 22°26' E 120°20'0 0.4
2018-May-09 20:20N 22°26' E 120°20'0 0.0
2018-May-09 19:56N 22°26' E 120°20'0 0.0
2018-May-09 19:26N 22°26' E 120°20'0 0.0
2018-May-09 18:44N 22°26' E 120°20'0 0.0
2018-May-09 18:26N 22°26' E 120°20'0 0.0
2018-May-09 17:56N 22°26' E 120°20'0 0.0
2018-May-09 17:14N 22°26' E 120°20'0 0.0
2018-May-09 16:56N 22°26' E 120°20'0 0.1
2018-May-09 16:26N 22°26' E 120°20'0 0.1
2018-May-09 15:56N 22°26' E 120°20'0 0.1
2018-May-09 15:26N 22°26' E 120°20'0 0.0
2018-May-09 14:56N 22°26' E 120°20'0 0.1
2018-May-09 14:26N 22°26' E 120°20'0 0.2
2018-May-09 13:38N 22°26' E 120°20'0 0.0
2018-May-09 13:20N 22°26' E 120°20'0 0.1
2018-May-09 12:56N 22°26' E 120°20'0 0.0
2018-May-09 12:26N 22°26' E 120°20'0 0.0
2018-May-09 11:56N 22°26' E 120°20'0 0.3
2018-May-09 11:26N 22°26' E 120°20'0 0.0
2018-May-09 10:56N 22°26' E 120°20'0 0.0
2018-May-09 10:26N 22°26' E 120°20'0 0.1
2018-May-09 09:56N 22°26' E 120°20'0 0.0
2018-May-09 09:26N 22°26' E 120°20'0 0.0
2018-May-09 08:56N 22°26' E 120°20'0 0.0
2018-May-09 08:26N 22°26' E 120°20'0 0.0
2018-May-09 07:56N 22°26' E 120°20'0 0.0
2018-May-09 07:26N 22°26' E 120°20'0 0.0
2018-May-09 06:38N 22°26' E 120°20'0 0.1
2018-May-09 06:26N 22°26' E 120°20'0 0.0
2018-May-09 05:56N 22°26' E 120°20'0 0.0
2018-May-09 05:26N 22°26' E 120°20'0 0.0
2018-May-09 04:56N 22°26' E 120°20'0 0.0
2018-May-09 04:26N 22°26' E 120°20'0 0.0
2018-May-09 03:56N 22°26' E 120°20'0 0.1
2018-May-09 03:26N 22°26' E 120°20'0 0.0
2018-May-09 02:56N 22°26' E 120°20'0 0.0
2018-May-09 02:20N 22°26' E 120°20'0 0.0
2018-May-09 01:44N 22°26' E 120°20'0 0.0
2018-May-09 01:26N 22°26' E 120°20'0 0.0
2018-May-09 00:50N 22°26' E 120°20'0 0.0
2018-May-09 00:20N 22°26' E 120°20'0 0.0
2018-May-08 23:56N 22°26' E 120°20'0 0.0
2018-May-08 23:26N 22°26' E 120°20'0 0.1
2018-May-08 22:50N 22°26' E 120°20'0 0.1
2018-May-08 22:26N 22°26' E 120°20'0 0.0
2018-May-08 14:50N 22°26' E 120°21'0 0.0
2018-May-08 14:20N 22°26' E 120°21'0 0.0
2018-May-08 13:50N 22°26' E 120°21'0 0.1
2018-May-08 13:26N 22°26' E 120°20'0 0.1
2018-May-08 12:56N 22°26' E 120°21'0 0.1
2018-May-08 12:20N 22°26' E 120°20'0 0.2
2018-May-08 11:14N 22°26' E 120°20'0 0.2
2018-May-08 10:56N 22°26' E 120°20'0 0.1
2018-May-08 10:14N 22°26' E 120°20'0 0.1
2018-May-08 09:50N 22°26' E 120°20'0 0.1
2018-May-08 09:08N 22°26' E 120°20'0 0.3
2018-May-08 08:56N 22°26' E 120°20'0 0.0
2018-May-08 08:26N 22°26' E 120°20'0 0.0
2018-May-08 07:56N 22°26' E 120°20'0 0.1
2018-May-08 07:20N 22°26' E 120°21'0 0.0
2018-May-08 06:56N 22°26' E 120°21'0 0.0
2018-May-08 06:26N 22°26' E 120°21'0 0.0
2018-May-08 05:50N 22°26' E 120°21'0 0.1
2018-May-08 05:26N 22°26' E 120°21'0 0.0
2018-May-08 04:32N 22°26' E 120°21'0 0.2
2018-May-08 04:26N 22°26' E 120°21'0 0.0
2018-May-08 03:50N 22°26' E 120°21'0 0.0
2018-May-08 03:20N 22°26' E 120°21'0 0.1
2018-May-08 02:50N 22°26' E 120°20'0 0.0
2018-May-08 02:20N 22°26' E 120°20'0 0.0
2018-May-08 01:38N 22°26' E 120°20'0 0.3
2018-May-08 01:26N 22°26' E 120°21'0 0.1
2018-May-08 00:50N 22°26' E 120°21'0 0.2
2018-May-07 23:41N 22°26' E 120°20'0 0.3
2018-May-07 23:17N 22°26' E 120°20'0 0.1
2018-May-07 22:59N 22°26' E 120°20'0 0.1
2018-May-07 22:29N 22°26' E 120°20'0 0.0
2018-May-07 21:59N 22°26' E 120°20'0 0.0
2018-May-07 20:41N 22°26' E 120°20'0 0.0
2018-May-07 19:41N 22°26' E 120°20'0 0.2
2018-May-07 19:29N 22°26' E 120°20'0 0.0
2018-May-07 18:59N 22°26' E 120°20'0 0.0
2018-May-07 18:23N 22°26' E 120°20'0 0.0
2018-May-07 17:59N 22°26' E 120°20'0 0.1
2018-May-07 17:23N 22°26' E 120°21'0 0.2
2018-May-07 16:59N 22°26' E 120°20'0 0.0
2018-May-07 16:29N 22°26' E 120°20'0 0.1
2018-May-07 15:59N 22°26' E 120°21'0 0.0
2018-May-07 15:23N 22°26' E 120°21'0 0.1
2018-May-07 14:59N 22°26' E 120°20'0 0.1
2018-May-07 11:35N 22°26' E 120°20'0 0.0
2018-May-07 11:23N 22°26' E 120°20'0 0.0
2018-May-07 10:59N 22°26' E 120°20'0 0.0
2018-May-07 10:23N 22°26' E 120°20'0 0.0
2018-May-07 09:41N 22°26' E 120°20'0 0.1
2018-May-07 09:29N 22°26' E 120°20'0 0.0
2018-May-07 08:59N 22°26' E 120°20'0 0.0
2018-May-07 08:29N 22°26' E 120°20'0 0.0
2018-May-07 07:59N 22°26' E 120°20'0 0.0
2018-May-07 07:29N 22°26' E 120°20'0 0.1
2018-May-07 06:53N 22°26' E 120°20'0 0.2
2018-May-07 06:17N 22°26' E 120°20'0 0.0
2018-May-07 05:47N 22°26' E 120°20'0 0.2
2018-May-07 05:29N 22°26' E 120°20'0 0.1
2018-May-07 04:59N 22°26' E 120°20'0 0.1
2018-May-07 04:29N 22°26' E 120°20'0 0.1
2018-May-07 03:59N 22°26' E 120°20'0 0.0
2018-May-07 03:11N 22°26' E 120°20'0 0.0
2018-May-07 02:41N 22°26' E 120°20'0 0.0
2018-May-07 02:23N 22°26' E 120°20'0 0.1
2018-May-07 01:59N 22°26' E 120°20'0 0.1
2018-May-07 01:29N 22°26' E 120°20'0 0.0
2018-May-07 00:59N 22°26' E 120°20'0 0.0
2018-May-07 00:29N 22°26' E 120°20'0 0.1
2018-May-06 23:59N 22°26' E 120°20'0 0.1
2018-May-06 23:29N 22°26' E 120°20'0 0.0
2018-May-06 22:59N 22°26' E 120°20'0 0.0
2018-May-06 20:47N 22°26' E 120°20'0 0.0
2018-May-06 20:29N 22°26' E 120°20'0 0.2
2018-May-06 19:53N 22°26' E 120°21'0 0.2
2018-May-06 19:23N 22°26' E 120°20'0 0.0
2018-May-06 18:41N 22°26' E 120°20'0 0.1
2018-May-06 18:17N 22°26' E 120°20'0 0.0
2018-May-06 17:29N 22°26' E 120°20'0 0.0
2018-May-06 16:53N 22°26' E 120°20'0 0.0
2018-May-06 16:17N 22°26' E 120°20'0 0.1
2018-May-06 15:59N 22°26' E 120°20'0 0.0
2018-May-06 15:29N 22°26' E 120°20'0 0.0
2018-May-06 14:59N 22°26' E 120°20'0 0.0
2018-May-06 14:29N 22°26' E 120°20'0 0.1
2018-May-06 13:05N 22°26' E 120°20'0 0.0
2018-May-06 12:59N 22°26' E 120°20'0 0.0
2018-May-06 12:29N 22°26' E 120°20'0 0.1
2018-May-06 11:53N 22°26' E 120°20'0 0.0
2018-May-06 11:29N 22°26' E 120°20'0 0.0
2018-May-06 10:11N 22°26' E 120°20'0 0.1
2018-May-06 09:59N 22°26' E 120°20'0 0.0
2018-May-06 09:17N 22°26' E 120°20'0 0.0
2018-May-06 08:47N 22°26' E 120°20'0 0.0
2018-May-06 08:29N 22°26' E 120°20'0 0.0
2018-May-06 07:59N 22°26' E 120°20'0 0.1
2018-May-06 07:29N 22°26' E 120°20'0 0.1
2018-May-06 06:59N 22°26' E 120°20'0 0.1
2018-May-06 06:29N 22°26' E 120°20'0 0.0
2018-May-06 05:59N 22°26' E 120°20'0 0.0
2018-May-06 05:29N 22°26' E 120°20'0 0.0
2018-May-06 04:53N 22°26' E 120°20'0 0.0
2018-May-06 04:29N 22°26' E 120°20'0 0.1
2018-May-06 03:53N 22°26' E 120°20'0 0.0
2018-May-06 03:11N 22°26' E 120°20'0 0.0
2018-May-06 02:53N 22°26' E 120°20'0 0.1
2018-May-06 02:29N 22°26' E 120°20'0 0.0
2018-May-06 01:59N 22°26' E 120°20'0 0.0
2018-May-06 01:29N 22°26' E 120°20'0 0.0
2018-May-06 00:59N 22°26' E 120°20'0 0.0
2018-May-06 00:23N 22°26' E 120°20'0 0.3
2018-May-05 23:59N 22°26' E 120°20'0 0.3
2018-May-05 23:17N 22°26' E 120°20'0 0.2
2018-May-05 22:59N 22°26' E 120°20'0 0.0
2018-May-05 22:05N 22°26' E 120°20'0 0.0
2018-May-05 21:53N 22°26' E 120°20'0 0.0
2018-May-05 21:29N 22°26' E 120°20'0 0.0
2018-May-05 20:59N 22°26' E 120°20'0 0.0
2018-May-05 20:29N 22°26' E 120°20'0 0.1
2018-May-05 19:59N 22°26' E 120°20'0 0.0
2018-May-05 19:17N 22°26' E 120°20'0 0.1
2018-May-05 18:59N 22°26' E 120°20'0 0.0
2018-May-05 18:23N 22°26' E 120°20'0 0.0
2018-May-05 17:59N 22°26' E 120°20'0 0.1
2018-May-05 17:29N 22°26' E 120°20'0 0.0
2018-May-05 16:59N 22°26' E 120°20'0 0.1
2018-May-05 12:53N 22°26' E 120°20'0 0.0
2018-May-05 12:23N 22°26' E 120°20'0 0.0
2018-May-05 11:59N 22°26' E 120°20'0 0.0
2018-May-05 11:29N 22°26' E 120°20'0 0.0
2018-May-05 10:59N 22°26' E 120°20'0 0.0
2018-May-05 10:29N 22°26' E 120°20'0 0.1
2018-May-05 09:59N 22°26' E 120°20'0 0.1
2018-May-05 09:29N 22°26' E 120°20'0 0.1
2018-May-05 08:47N 22°26' E 120°20'0 0.0
2018-May-05 08:29N 22°26' E 120°20'0 0.0
2018-May-05 07:59N 22°26' E 120°20'0 0.1
2018-May-05 07:11N 22°26' E 120°20'0 0.0
2018-May-05 06:53N 22°26' E 120°20'0 0.0
2018-May-05 06:29N 22°26' E 120°20'0 0.0
2018-May-05 05:59N 22°26' E 120°20'0 0.0
2018-May-05 05:23N 22°26' E 120°20'0 0.0
2018-May-04 14:26N 22°26' E 120°21'0 0.0
2018-May-04 13:56N 22°26' E 120°21'0 0.1
2018-May-04 12:38N 22°26' E 120°20'0 0.3
2018-May-04 12:26N 22°26' E 120°20'0 0.1
2018-May-04 11:50N 22°26' E 120°20'0 0.2
2018-May-04 11:20N 22°26' E 120°20'0 0.0
2018-May-04 10:56N 22°26' E 120°20'0 0.0
2018-May-04 10:26N 22°26' E 120°20'0 0.0
2018-May-04 09:56N 22°26' E 120°20'0 0.0
2018-May-04 09:26N 22°26' E 120°20'0 0.0
2018-May-04 08:56N 22°26' E 120°20'0 0.1
2018-May-04 08:26N 22°26' E 120°20'0 0.1
2018-May-04 07:56N 22°26' E 120°20'0 0.1
2018-May-04 07:26N 22°26' E 120°20'0 0.1
2018-May-04 06:56N 22°26' E 120°20'0 0.1
2018-May-04 06:20N 22°26' E 120°20'0 0.1
2018-May-04 05:50N 22°26' E 120°20'0 0.1
2018-May-04 05:20N 22°26' E 120°21'0 0.1
2018-May-04 04:44N 22°26' E 120°21'0 0.1
2018-May-04 04:26N 22°26' E 120°21'0 0.2
2018-May-04 03:50N 22°26' E 120°21'0 0.1
2018-May-04 03:20N 22°26' E 120°21'0 0.1
2018-May-04 02:32N 22°26' E 120°20'0 0.0
2018-May-04 02:20N 22°26' E 120°20'0 0.0
2018-May-04 01:38N 22°26' E 120°20'0 0.0
2018-May-04 01:26N 22°26' E 120°20'0 0.0
2018-May-04 00:56N 22°26' E 120°20'0 0.0
2018-May-03 12:38N 22°26' E 120°21'0 0.0
2018-May-03 12:14N 22°26' E 120°21'0 0.1
2018-May-03 11:56N 22°26' E 120°21'0 0.0
2018-May-03 11:26N 22°26' E 120°21'0 0.0
2018-May-03 10:50N 22°26' E 120°21'0 0.0
2018-May-03 10:14N 22°26' E 120°21'0 0.1
2018-May-03 09:44N 22°26' E 120°21'0 0.2
2018-May-03 09:26N 22°26' E 120°21'0 0.1
2018-May-03 08:56N 22°26' E 120°21'0 0.1
2018-May-03 08:26N 22°26' E 120°21'0 0.1
2018-May-03 07:38N 22°26' E 120°20'0 0.1
2018-May-03 07:26N 22°26' E 120°20'0 0.1
2018-May-03 06:56N 22°26' E 120°21'0 0.1
2018-May-03 06:26N 22°26' E 120°20'0 0.0
2018-May-03 05:50N 22°26' E 120°20'0 0.1
2018-May-03 05:08N 22°26' E 120°21'0 0.0
2018-May-03 04:50N 22°26' E 120°21'0 0.1
2018-May-03 04:26N 22°26' E 120°21'0 0.1
2018-May-03 03:44N 22°26' E 120°21'0 0.2
2018-May-03 03:26N 22°26' E 120°20'0 0.0
2018-May-03 02:56N 22°26' E 120°20'0 0.0
2018-May-03 02:26N 22°26' E 120°20'0 0.0
2018-May-03 01:08N 22°26' E 120°20'0 0.0
2018-May-03 00:44N 22°26' E 120°20'  
Track history (hours):
 
Tides and Currents Weather Stations Pressure Air Temp Water Temp Dewpoint Dewpoint Depression Visibility Wind Speed Wind Dir Waves Ship Positions

Dwiputra

Last reported at 2018-May-12 18:45 UTC. Time now 2018-Jun-20 11:28 UTC.
Position N 22°09' E 121°00'.
Warning: this ship's position is 38 days out of date.

Length 272 m; beam 47.2 m.

Type: Tanker. MMSI: 308883000.

Date/timePositionNaut miles runAvg speedWind from/ knotsBaromVisibWave heightAir tempDewpointWater temp
2018-May-12 18:45N 22°09' E 121°00'310.5
2018-May-12 18:27N 22°12' E 121°00'1 1.9
2018-May-12 17:58N 22°12' E 121°01'4 1.3
2018-May-12 14:56N 22°08' E 121°01'611.6
2018-May-12 14:26N 22°14' E 121°01'511.0
2018-May-12 13:57N 22°20' E 121°02'7 8.6
2018-May-12 13:07N 22°13' E 120°60'210.9
2018-May-12 12:55N 22°11' E 120°60'1 0.4
2018-May-12 10:06N 22°09' E 120°60'112.9
2018-May-12 10:00N 22°11' E 120°60'712.1
2018-May-12 09:23N 22°18' E 120°60'1211.4
2018-May-12 08:20N 22°29' E 121°04'8 4.5
2018-May-12 06:37N 22°23' E 121°01'314.0
2018-May-12 06:23N 22°19' E 120°60'815.7
2018-May-12 05:51N 22°11' E 120°59'2 0.3
2018-May-11 23:42N 22°09' E 120°60'3 8.6
2018-May-11 23:24N 22°12' E 120°60'4 9.0
2018-May-11 22:57N 22°16' E 120°60'5 9.4
2018-May-11 22:28N 22°20' E 120°60'8 8.9
2018-May-11 21:36N 22°27' E 121°03'1 4.1
2018-May-11 21:27N 22°27' E 121°03'5 7.9
2018-May-11 20:48N 22°23' E 121°01'5 7.7
2018-May-11 20:11N 22°18' E 120°60'2 7.8
2018-May-11 19:55N 22°16' E 120°60'3 7.9
2018-May-11 19:30N 22°13' E 120°60'37 4.3
2018-May-11 10:50N 22°09' E 120°20'4 8.7
2018-May-11 10:25N 22°12' E 120°18'4 8.7
2018-May-11 10:00N 22°15' E 120°16'4 8.8
2018-May-11 09:30N 22°19' E 120°13'4 8.5
2018-May-11 09:01N 22°21' E 120°10'2 4.3
2018-May-11 08:30N 22°23' E 120°08'0 0.3
2018-May-11 08:00N 22°23' E 120°08'0 0.5
2018-May-11 07:18N 22°23' E 120°07'0 0.8
2018-May-11 07:00N 22°23' E 120°07'0 0.5
2018-May-11 06:30N 22°23' E 120°07'0 0.6
2018-May-11 05:54N 22°23' E 120°06'0 0.6
2018-May-11 05:30N 22°24' E 120°06'0 0.7
2018-May-11 05:00N 22°24' E 120°06'0 0.5
2018-May-11 04:30N 22°24' E 120°06'0 0.5
2018-May-11 04:00N 22°24' E 120°06'0 0.3
2018-May-11 03:30N 22°24' E 120°06'0 0.4
2018-May-11 03:00N 22°25' E 120°06'0 0.5
2018-May-11 02:30N 22°25' E 120°06'0 0.4
2018-May-11 02:00N 22°25' E 120°06'2 3.9
2018-May-11 01:30N 22°26' E 120°08'510.0
2018-May-11 01:00N 22°30' E 120°12'5 9.4
2018-May-11 00:30N 22°33' E 120°15'3 6.8
2018-May-11 00:00N 22°33' E 120°19'1 1.7
2018-May-10 23:30N 22°34' E 120°19'0 0.6
2018-May-10 22:56N 22°34' E 120°18'0 0.1
2018-May-10 22:29N 22°34' E 120°18'0 0.0
2018-May-10 21:57N 22°34' E 120°18'0 0.0
2018-May-10 21:29N 22°34' E 120°18'0 0.0
2018-May-10 20:59N 22°34' E 120°18'0 0.0
2018-May-10 20:26N 22°34' E 120°18'0 0.0
2018-May-10 19:59N 22°34' E 120°18'0 0.0
2018-May-10 19:26N 22°34' E 120°18'0 0.0
2018-May-10 18:56N 22°34' E 120°18'0 0.0
2018-May-10 18:29N 22°34' E 120°18'0 0.0
2018-May-10 17:59N 22°34' E 120°18'0 0.0
2018-May-10 17:29N 22°34' E 120°18'0 0.0
2018-May-10 16:59N 22°34' E 120°18'0 0.0
2018-May-10 16:29N 22°34' E 120°18'0 0.0
2018-May-10 15:59N 22°34' E 120°18'0 0.0
2018-May-10 15:29N 22°34' E 120°18'0 0.0
2018-May-10 14:59N 22°34' E 120°18'0 0.0
2018-May-10 14:26N 22°34' E 120°18'0 0.0
2018-May-10 13:56N 22°34' E 120°18'0 0.0
2018-May-10 13:29N 22°34' E 120°18'0 0.0
2018-May-10 12:59N 22°34' E 120°18'0 0.0
2018-May-10 12:23N 22°34' E 120°18'0 0.0
2018-May-10 11:56N 22°34' E 120°18'0 0.0
2018-May-10 11:29N 22°34' E 120°18'0 0.0
2018-May-10 10:59N 22°34' E 120°18'0 0.0
2018-May-10 10:29N 22°34' E 120°18'0 0.0
2018-May-10 09:56N 22°34' E 120°18'0 0.0
2018-May-10 09:29N 22°34' E 120°18'0 0.0
2018-May-10 08:50N 22°34' E 120°18'0 0.0
2018-May-10 08:26N 22°34' E 120°18'0 0.0
2018-May-10 07:56N 22°34' E 120°18'0 0.0
2018-May-10 07:26N 22°34' E 120°18'0 0.0
2018-May-10 06:56N 22°34' E 120°18'0 0.0
2018-May-10 06:26N 22°34' E 120°18'0 0.0
2018-May-10 05:59N 22°34' E 120°18'0 0.0
2018-May-10 05:29N 22°34' E 120°18'0 0.0
2018-May-10 04:56N 22°34' E 120°18'0 0.0
2018-May-10 04:20N 22°34' E 120°18'0 0.0
2018-May-10 03:56N 22°34' E 120°18'0 0.0
2018-May-10 03:26N 22°34' E 120°18'0 0.0
2018-May-10 02:56N 22°34' E 120°18'0 0.0
2018-May-10 02:20N 22°34' E 120°18'0 0.0
2018-May-10 01:56N 22°34' E 120°18'0 0.0
2018-May-10 01:20N 22°34' E 120°18'0 0.0
2018-May-10 00:56N 22°34' E 120°18'0 0.0
2018-May-10 00:27N 22°34' E 120°18'1 1.3
2018-May-10 00:00N 22°34' E 120°19'1 1.8
2018-May-09 23:30N 22°33' E 120°18'3 6.1
2018-May-09 23:00N 22°32' E 120°15'3 5.0
2018-May-09 22:30N 22°31' E 120°13'1 1.5
2018-May-09 22:00N 22°30' E 120°13'4 8.6
2018-May-09 21:29N 22°27' E 120°17'3 6.6
2018-May-09 21:00N 22°26' E 120°20'0 0.4
2018-May-09 20:20N 22°26' E 120°20'0 0.0
2018-May-09 19:56N 22°26' E 120°20'0 0.0
2018-May-09 19:26N 22°26' E 120°20'0 0.0
2018-May-09 18:44N 22°26' E 120°20'0 0.0
2018-May-09 18:26N 22°26' E 120°20'0 0.0
2018-May-09 17:56N 22°26' E 120°20'0 0.0
2018-May-09 17:14N 22°26' E 120°20'0 0.0
2018-May-09 16:56N 22°26' E 120°20'0 0.1
2018-May-09 16:26N 22°26' E 120°20'0 0.1
2018-May-09 15:56N 22°26' E 120°20'0 0.1
2018-May-09 15:26N 22°26' E 120°20'0 0.0
2018-May-09 14:56N 22°26' E 120°20'0 0.1
2018-May-09 14:26N 22°26' E 120°20'0 0.2
2018-May-09 13:38N 22°26' E 120°20'0 0.0
2018-May-09 13:20N 22°26' E 120°20'0 0.1
2018-May-09 12:56N 22°26' E 120°20'0 0.0
2018-May-09 12:26N 22°26' E 120°20'0 0.0
2018-May-09 11:56N 22°26' E 120°20'0 0.3
2018-May-09 11:26N 22°26' E 120°20'0 0.0
2018-May-09 10:56N 22°26' E 120°20'0 0.0
2018-May-09 10:26N 22°26' E 120°20'0 0.1
2018-May-09 09:56N 22°26' E 120°20'0 0.0
2018-May-09 09:26N 22°26' E 120°20'0 0.0
2018-May-09 08:56N 22°26' E 120°20'0 0.0
2018-May-09 08:26N 22°26' E 120°20'0 0.0
2018-May-09 07:56N 22°26' E 120°20'0 0.0
2018-May-09 07:26N 22°26' E 120°20'0 0.0
2018-May-09 06:38N 22°26' E 120°20'0 0.1
2018-May-09 06:26N 22°26' E 120°20'0 0.0
2018-May-09 05:56N 22°26' E 120°20'0 0.0
2018-May-09 05:26N 22°26' E 120°20'0 0.0
2018-May-09 04:56N 22°26' E 120°20'0 0.0
2018-May-09 04:26N 22°26' E 120°20'0 0.0
2018-May-09 03:56N 22°26' E 120°20'0 0.1
2018-May-09 03:26N 22°26' E 120°20'0 0.0
2018-May-09 02:56N 22°26' E 120°20'0 0.0
2018-May-09 02:20N 22°26' E 120°20'0 0.0
2018-May-09 01:44N 22°26' E 120°20'0 0.0
2018-May-09 01:26N 22°26' E 120°20'0 0.0
2018-May-09 00:50N 22°26' E 120°20'0 0.0
2018-May-09 00:20N 22°26' E 120°20'0 0.0
2018-May-08 23:56N 22°26' E 120°20'0 0.0
2018-May-08 23:26N 22°26' E 120°20'0 0.1
2018-May-08 22:50N 22°26' E 120°20'0 0.1
2018-May-08 22:26N 22°26' E 120°20'0 0.0
2018-May-08 14:50N 22°26' E 120°21'0 0.0
2018-May-08 14:20N 22°26' E 120°21'0 0.0
2018-May-08 13:50N 22°26' E 120°21'0 0.1
2018-May-08 13:26N 22°26' E 120°20'0 0.1
2018-May-08 12:56N 22°26' E 120°21'0 0.1
2018-May-08 12:20N 22°26' E 120°20'0 0.2
2018-May-08 11:14N 22°26' E 120°20'0 0.2
2018-May-08 10:56N 22°26' E 120°20'0 0.1
2018-May-08 10:14N 22°26' E 120°20'0 0.1
2018-May-08 09:50N 22°26' E 120°20'0 0.1
2018-May-08 09:08N 22°26' E 120°20'0 0.3
2018-May-08 08:56N 22°26' E 120°20'0 0.0
2018-May-08 08:26N 22°26' E 120°20'0 0.0
2018-May-08 07:56N 22°26' E 120°20'0 0.1
2018-May-08 07:20N 22°26' E 120°21'0 0.0
2018-May-08 06:56N 22°26' E 120°21'0 0.0
2018-May-08 06:26N 22°26' E 120°21'0 0.0
2018-May-08 05:50N 22°26' E 120°21'0 0.1
2018-May-08 05:26N 22°26' E 120°21'0 0.0
2018-May-08 04:32N 22°26' E 120°21'0 0.2
2018-May-08 04:26N 22°26' E 120°21'0 0.0
2018-May-08 03:50N 22°26' E 120°21'0 0.0
2018-May-08 03:20N 22°26' E 120°21'0 0.1
2018-May-08 02:50N 22°26' E 120°20'0 0.0
2018-May-08 02:20N 22°26' E 120°20'0 0.0
2018-May-08 01:38N 22°26' E 120°20'0 0.3
2018-May-08 01:26N 22°26' E 120°21'0 0.1
2018-May-08 00:50N 22°26' E 120°21'0 0.2
2018-May-07 23:41N 22°26' E 120°20'0 0.3
2018-May-07 23:17N 22°26' E 120°20'0 0.1
2018-May-07 22:59N 22°26' E 120°20'0 0.1
2018-May-07 22:29N 22°26' E 120°20'0 0.0
2018-May-07 21:59N 22°26' E 120°20'0 0.0
2018-May-07 20:41N 22°26' E 120°20'0 0.0
2018-May-07 19:41N 22°26' E 120°20'0 0.2
2018-May-07 19:29N 22°26' E 120°20'0 0.0
2018-May-07 18:59N 22°26' E 120°20'0 0.0
2018-May-07 18:23N 22°26' E 120°20'0 0.0
2018-May-07 17:59N 22°26' E 120°20'0 0.1
2018-May-07 17:23N 22°26' E 120°21'0 0.2
2018-May-07 16:59N 22°26' E 120°20'0 0.0
2018-May-07 16:29N 22°26' E 120°20'0 0.1
2018-May-07 15:59N 22°26' E 120°21'0 0.0
2018-May-07 15:23N 22°26' E 120°21'0 0.1
2018-May-07 14:59N 22°26' E 120°20'0 0.1
2018-May-07 11:35N 22°26' E 120°20'0 0.0
2018-May-07 11:23N 22°26' E 120°20'0 0.0
2018-May-07 10:59N 22°26' E 120°20'0 0.0
2018-May-07 10:23N 22°26' E 120°20'0 0.0
2018-May-07 09:41N 22°26' E 120°20'0 0.1
2018-May-07 09:29N 22°26' E 120°20'0 0.0
2018-May-07 08:59N 22°26' E 120°20'0 0.0
2018-May-07 08:29N 22°26' E 120°20'0 0.0
2018-May-07 07:59N 22°26' E 120°20'0 0.0
2018-May-07 07:29N 22°26' E 120°20'0 0.1
2018-May-07 06:53N 22°26' E 120°20'0 0.2
2018-May-07 06:17N 22°26' E 120°20'0 0.0
2018-May-07 05:47N 22°26' E 120°20'0 0.2
2018-May-07 05:29N 22°26' E 120°20'0 0.1
2018-May-07 04:59N 22°26' E 120°20'0 0.1
2018-May-07 04:29N 22°26' E 120°20'0 0.1
2018-May-07 03:59N 22°26' E 120°20'0 0.0
2018-May-07 03:11N 22°26' E 120°20'0 0.0
2018-May-07 02:41N 22°26' E 120°20'0 0.0
2018-May-07 02:23N 22°26' E 120°20'0 0.1
2018-May-07 01:59N 22°26' E 120°20'0 0.1
2018-May-07 01:29N 22°26' E 120°20'0 0.0
2018-May-07 00:59N 22°26' E 120°20'0 0.0
2018-May-07 00:29N 22°26' E 120°20'0 0.1
2018-May-06 23:59N 22°26' E 120°20'0 0.1
2018-May-06 23:29N 22°26' E 120°20'0 0.0
2018-May-06 22:59N 22°26' E 120°20'0 0.0
2018-May-06 20:47N 22°26' E 120°20'0 0.0
2018-May-06 20:29N 22°26' E 120°20'0 0.2
2018-May-06 19:53N 22°26' E 120°21'0 0.2
2018-May-06 19:23N 22°26' E 120°20'0 0.0
2018-May-06 18:41N 22°26' E 120°20'0 0.1
2018-May-06 18:17N 22°26' E 120°20'0 0.0
2018-May-06 17:29N 22°26' E 120°20'0 0.0
2018-May-06 16:53N 22°26' E 120°20'0 0.0
2018-May-06 16:17N 22°26' E 120°20'0 0.1
2018-May-06 15:59N 22°26' E 120°20'0 0.0
2018-May-06 15:29N 22°26' E 120°20'0 0.0
2018-May-06 14:59N 22°26' E 120°20'0 0.0
2018-May-06 14:29N 22°26' E 120°20'0 0.1
2018-May-06 13:05N 22°26' E 120°20'0 0.0
2018-May-06 12:59N 22°26' E 120°20'0 0.0
2018-May-06 12:29N 22°26' E 120°20'0 0.1
2018-May-06 11:53N 22°26' E 120°20'0 0.0
2018-May-06 11:29N 22°26' E 120°20'0 0.0
2018-May-06 10:11N 22°26' E 120°20'0 0.1
2018-May-06 09:59N 22°26' E 120°20'0 0.0
2018-May-06 09:17N 22°26' E 120°20'0 0.0
2018-May-06 08:47N 22°26' E 120°20'0 0.0
2018-May-06 08:29N 22°26' E 120°20'0 0.0
2018-May-06 07:59N 22°26' E 120°20'0 0.1
2018-May-06 07:29N 22°26' E 120°20'0 0.1
2018-May-06 06:59N 22°26' E 120°20'0 0.1
2018-May-06 06:29N 22°26' E 120°20'0 0.0
2018-May-06 05:59N 22°26' E 120°20'0 0.0
2018-May-06 05:29N 22°26' E 120°20'0 0.0
2018-May-06 04:53N 22°26' E 120°20'0 0.0
2018-May-06 04:29N 22°26' E 120°20'0 0.1
2018-May-06 03:53N 22°26' E 120°20'0 0.0
2018-May-06 03:11N 22°26' E 120°20'0 0.0
2018-May-06 02:53N 22°26' E 120°20'0 0.1
2018-May-06 02:29N 22°26' E 120°20'0 0.0
2018-May-06 01:59N 22°26' E 120°20'0 0.0
2018-May-06 01:29N 22°26' E 120°20'0 0.0
2018-May-06 00:59N 22°26' E 120°20'0 0.0
2018-May-06 00:23N 22°26' E 120°20'0 0.3
2018-May-05 23:59N 22°26' E 120°20'0 0.3
2018-May-05 23:17N 22°26' E 120°20'0 0.2
2018-May-05 22:59N 22°26' E 120°20'0 0.0
2018-May-05 22:05N 22°26' E 120°20'0 0.0
2018-May-05 21:53N 22°26' E 120°20'0 0.0
2018-May-05 21:29N 22°26' E 120°20'0 0.0
2018-May-05 20:59N 22°26' E 120°20'0 0.0
2018-May-05 20:29N 22°26' E 120°20'0 0.1
2018-May-05 19:59N 22°26' E 120°20'0 0.0
2018-May-05 19:17N 22°26' E 120°20'0 0.1
2018-May-05 18:59N 22°26' E 120°20'0 0.0
2018-May-05 18:23N 22°26' E 120°20'0 0.0
2018-May-05 17:59N 22°26' E 120°20'0 0.1
2018-May-05 17:29N 22°26' E 120°20'0 0.0
2018-May-05 16:59N 22°26' E 120°20'0 0.1
2018-May-05 12:53N 22°26' E 120°20'0 0.0
2018-May-05 12:23N 22°26' E 120°20'0 0.0
2018-May-05 11:59N 22°26' E 120°20'0 0.0
2018-May-05 11:29N 22°26' E 120°20'0 0.0
2018-May-05 10:59N 22°26' E 120°20'0 0.0
2018-May-05 10:29N 22°26' E 120°20'0 0.1
2018-May-05 09:59N 22°26' E 120°20'0 0.1
2018-May-05 09:29N 22°26' E 120°20'0 0.1
2018-May-05 08:47N 22°26' E 120°20'0 0.0
2018-May-05 08:29N 22°26' E 120°20'0 0.0
2018-May-05 07:59N 22°26' E 120°20'0 0.1
2018-May-05 07:11N 22°26' E 120°20'0 0.0
2018-May-05 06:53N 22°26' E 120°20'0 0.0
2018-May-05 06:29N 22°26' E 120°20'0 0.0
2018-May-05 05:59N 22°26' E 120°20'0 0.0
2018-May-05 05:23N 22°26' E 120°20'0 0.0
2018-May-04 14:26N 22°26' E 120°21'0 0.0
2018-May-04 13:56N 22°26' E 120°21'0 0.1
2018-May-04 12:38N 22°26' E 120°20'0 0.3
2018-May-04 12:26N 22°26' E 120°20'0 0.1
2018-May-04 11:50N 22°26' E 120°20'0 0.2
2018-May-04 11:20N 22°26' E 120°20'0 0.0
2018-May-04 10:56N 22°26' E 120°20'0 0.0
2018-May-04 10:26N 22°26' E 120°20'0 0.0
2018-May-04 09:56N 22°26' E 120°20'0 0.0
2018-May-04 09:26N 22°26' E 120°20'0 0.0
2018-May-04 08:56N 22°26' E 120°20'0 0.1
2018-May-04 08:26N 22°26' E 120°20'0 0.1
2018-May-04 07:56N 22°26' E 120°20'0 0.1
2018-May-04 07:26N 22°26' E 120°20'0 0.1
2018-May-04 06:56N 22°26' E 120°20'0 0.1
2018-May-04 06:20N 22°26' E 120°20'0 0.1
2018-May-04 05:50N 22°26' E 120°20'0 0.1
2018-May-04 05:20N 22°26' E 120°21'0 0.1
2018-May-04 04:44N 22°26' E 120°21'0 0.1
2018-May-04 04:26N 22°26' E 120°21'0 0.2
2018-May-04 03:50N 22°26' E 120°21'0 0.1
2018-May-04 03:20N 22°26' E 120°21'0 0.1
2018-May-04 02:32N 22°26' E 120°20'0 0.0
2018-May-04 02:20N 22°26' E 120°20'0 0.0
2018-May-04 01:38N 22°26' E 120°20'0 0.0
2018-May-04 01:26N 22°26' E 120°20'0 0.0
2018-May-04 00:56N 22°26' E 120°20'0 0.0
2018-May-03 12:38N 22°26' E 120°21'0 0.0
2018-May-03 12:14N 22°26' E 120°21'0 0.1
2018-May-03 11:56N 22°26' E 120°21'0 0.0
2018-May-03 11:26N 22°26' E 120°21'0 0.0
2018-May-03 10:50N 22°26' E 120°21'0 0.0
2018-May-03 10:14N 22°26' E 120°21'0 0.1
2018-May-03 09:44N 22°26' E 120°21'0 0.2
2018-May-03 09:26N 22°26' E 120°21'0 0.1
2018-May-03 08:56N 22°26' E 120°21'0 0.1
2018-May-03 08:26N 22°26' E 120°21'0 0.1
2018-May-03 07:38N 22°26' E 120°20'0 0.1
2018-May-03 07:26N 22°26' E 120°20'0 0.1
2018-May-03 06:56N 22°26' E 120°21'0 0.1
2018-May-03 06:26N 22°26' E 120°20'0 0.0
2018-May-03 05:50N 22°26' E 120°20'0 0.1
2018-May-03 05:08N 22°26' E 120°21'0 0.0
2018-May-03 04:50N 22°26' E 120°21'0 0.1
2018-May-03 04:26N 22°26' E 120°21'0 0.1
2018-May-03 03:44N 22°26' E 120°21'0 0.2
2018-May-03 03:26N 22°26' E 120°20'0 0.0
2018-May-03 02:56N 22°26' E 120°20'0 0.0
2018-May-03 02:26N 22°26' E 120°20'0 0.0
2018-May-03 01:08N 22°26' E 120°20'0 0.0
2018-May-03 00:44N 22°26' E 120°20'  

Dump ship's entire track history